sensor_id;sensor_type;location;lat;lon;timestamp;P1;durP1;ratioP1;P2;durP2;ratioP2
50976;SDS011;36992;48.200;12.418;2022-12-29T00:01:22;2.70;;;0.82;;
50976;SDS011;36992;48.200;12.418;2022-12-29T00:03:49;2.75;;;0.93;;
50976;SDS011;36992;48.200;12.418;2022-12-29T00:06:17;3.65;;;0.73;;
50976;SDS011;36992;48.200;12.418;2022-12-29T00:08:44;3.20;;;0.95;;
50976;SDS011;36992;48.200;12.418;2022-12-29T00:11:11;1.90;;;0.77;;
50976;SDS011;36992;48.200;12.418;2022-12-29T00:13:39;3.33;;;0.77;;
50976;SDS011;36992;48.200;12.418;2022-12-29T00:16:24;3.15;;;1.05;;
50976;SDS011;36992;48.200;12.418;2022-12-29T00:18:52;3.15;;;1.15;;
50976;SDS011;36992;48.200;12.418;2022-12-29T00:21:21;2.47;;;0.80;;
50976;SDS011;36992;48.200;12.418;2022-12-29T00:24:08;2.22;;;1.00;;
50976;SDS011;36992;48.200;12.418;2022-12-29T00:26:57;2.75;;;0.85;;
50976;SDS011;36992;48.200;12.418;2022-12-29T00:29:54;3.08;;;1.02;;
50976;SDS011;36992;48.200;12.418;2022-12-29T00:32:38;1.75;;;0.77;;
50976;SDS011;36992;48.200;12.418;2022-12-29T00:35:23;1.83;;;0.80;;
50976;SDS011;36992;48.200;12.418;2022-12-29T00:37:54;2.28;;;0.80;;
50976;SDS011;36992;48.200;12.418;2022-12-29T00:40:40;3.17;;;1.10;;
50976;SDS011;36992;48.200;12.418;2022-12-29T00:43:24;4.35;;;0.88;;
50976;SDS011;36992;48.200;12.418;2022-12-29T00:46:08;1.88;;;0.82;;
50976;SDS011;36992;48.200;12.418;2022-12-29T00:48:35;2.50;;;1.00;;
50976;SDS011;36992;48.200;12.418;2022-12-29T00:51:19;3.35;;;1.30;;
50976;SDS011;36992;48.200;12.418;2022-12-29T00:53:47;2.20;;;1.00;;
50976;SDS011;36992;48.200;12.418;2022-12-29T00:56:14;2.65;;;1.02;;
50976;SDS011;36992;48.200;12.418;2022-12-29T00:58:40;2.28;;;0.80;;
50976;SDS011;36992;48.200;12.418;2022-12-29T01:01:08;2.05;;;0.60;;
50976;SDS011;36992;48.200;12.418;2022-12-29T01:03:36;1.77;;;0.80;;
50976;SDS011;36992;48.200;12.418;2022-12-29T01:06:04;2.15;;;1.00;;
50976;SDS011;36992;48.200;12.418;2022-12-29T01:08:32;2.97;;;0.90;;
50976;SDS011;36992;48.200;12.418;2022-12-29T01:11:00;3.03;;;0.95;;
50976;SDS011;36992;48.200;12.418;2022-12-29T01:13:27;2.47;;;0.90;;
50976;SDS011;36992;48.200;12.418;2022-12-29T01:15:54;2.15;;;0.70;;
50976;SDS011;36992;48.200;12.418;2022-12-29T01:18:21;3.72;;;1.77;;
50976;SDS011;36992;48.200;12.418;2022-12-29T01:20:48;2.67;;;0.90;;
50976;SDS011;36992;48.200;12.418;2022-12-29T01:23:15;2.05;;;0.90;;
50976;SDS011;36992;48.200;12.418;2022-12-29T01:25:42;1.65;;;0.70;;
50976;SDS011;36992;48.200;12.418;2022-12-29T01:28:10;3.60;;;0.88;;
50976;SDS011;36992;48.200;12.418;2022-12-29T01:30:36;2.00;;;0.55;;
50976;SDS011;36992;48.200;12.418;2022-12-29T01:33:03;1.83;;;0.68;;
50976;SDS011;36992;48.200;12.418;2022-12-29T01:35:30;5.55;;;1.33;;
50976;SDS011;36992;48.200;12.418;2022-12-29T01:37:56;3.30;;;1.23;;
50976;SDS011;36992;48.200;12.418;2022-12-29T01:40:23;3.20;;;1.13;;
50976;SDS011;36992;48.200;12.418;2022-12-29T01:42:50;5.45;;;2.10;;
50976;SDS011;36992;48.200;12.418;2022-12-29T01:45:18;6.15;;;2.30;;
50976;SDS011;36992;48.200;12.418;2022-12-29T01:47:46;4.93;;;2.13;;
50976;SDS011;36992;48.200;12.418;2022-12-29T01:50:16;4.30;;;1.77;;
50976;SDS011;36992;48.200;12.418;2022-12-29T01:52:47;5.00;;;1.65;;
50976;SDS011;36992;48.200;12.418;2022-12-29T01:55:17;6.65;;;2.05;;
50976;SDS011;36992;48.200;12.418;2022-12-29T01:57:45;5.10;;;2.30;;
50976;SDS011;36992;48.200;12.418;2022-12-29T02:00:15;5.68;;;2.55;;
50976;SDS011;36992;48.200;12.418;2022-12-29T02:02:45;5.40;;;1.80;;
50976;SDS011;36992;48.200;12.418;2022-12-29T02:05:15;4.10;;;1.98;;
50976;SDS011;36992;48.200;12.418;2022-12-29T02:07:47;6.22;;;2.10;;
50976;SDS011;36992;48.200;12.418;2022-12-29T02:10:16;3.38;;;1.48;;
50976;SDS011;36992;48.200;12.418;2022-12-29T02:12:45;4.47;;;1.95;;
50976;SDS011;36992;48.200;12.418;2022-12-29T02:15:12;4.32;;;1.73;;
50976;SDS011;36992;48.200;12.418;2022-12-29T02:17:49;3.40;;;1.23;;
50976;SDS011;36992;48.200;12.418;2022-12-29T02:20:50;2.88;;;1.10;;
50976;SDS011;36992;48.200;12.418;2022-12-29T02:30:15;2.97;;;0.75;;
50976;SDS011;36992;48.200;12.418;2022-12-29T02:33:03;2.22;;;0.90;;
50976;SDS011;36992;48.200;12.418;2022-12-29T02:35:40;2.40;;;0.90;;
50976;SDS011;36992;48.200;12.418;2022-12-29T02:38:17;2.00;;;0.75;;
50976;SDS011;36992;48.200;12.418;2022-12-29T02:40:53;2.05;;;0.77;;
50976;SDS011;36992;48.200;12.418;2022-12-29T02:43:30;2.22;;;0.65;;
50976;SDS011;36992;48.200;12.418;2022-12-29T02:46:07;3.30;;;0.77;;
50976;SDS011;36992;48.200;12.418;2022-12-29T02:48:41;1.77;;;0.63;;
50976;SDS011;36992;48.200;12.418;2022-12-29T02:51:12;2.15;;;1.10;;
50976;SDS011;36992;48.200;12.418;2022-12-29T02:53:44;2.53;;;0.68;;
50976;SDS011;36992;48.200;12.418;2022-12-29T02:56:29;1.88;;;0.60;;
50976;SDS011;36992;48.200;12.418;2022-12-29T02:58:56;1.63;;;0.60;;
50976;SDS011;36992;48.200;12.418;2022-12-29T03:01:32;2.40;;;0.70;;
50976;SDS011;36992;48.200;12.418;2022-12-29T03:04:31;1.98;;;0.70;;
50976;SDS011;36992;48.200;12.418;2022-12-29T03:07:07;1.57;;;0.43;;
50976;SDS011;36992;48.200;12.418;2022-12-29T03:09:42;1.98;;;0.68;;
50976;SDS011;36992;48.200;12.418;2022-12-29T03:12:18;1.48;;;0.60;;
50976;SDS011;36992;48.200;12.418;2022-12-29T03:15:13;3.13;;;0.50;;
50976;SDS011;36992;48.200;12.418;2022-12-29T03:18:04;5.18;;;1.00;;
50976;SDS011;36992;48.200;12.418;2022-12-29T03:20:37;1.70;;;0.70;;
50976;SDS011;36992;48.200;12.418;2022-12-29T03:23:09;2.42;;;0.90;;
50976;SDS011;36992;48.200;12.418;2022-12-29T03:25:38;2.78;;;0.70;;
50976;SDS011;36992;48.200;12.418;2022-12-29T03:28:09;2.28;;;0.73;;
50976;SDS011;36992;48.200;12.418;2022-12-29T03:30:39;2.30;;;0.70;;
50976;SDS011;36992;48.200;12.418;2022-12-29T03:33:10;1.05;;;0.40;;
50976;SDS011;36992;48.200;12.418;2022-12-29T03:35:41;1.92;;;0.60;;
50976;SDS011;36992;48.200;12.418;2022-12-29T03:38:11;2.03;;;0.52;;
50976;SDS011;36992;48.200;12.418;2022-12-29T03:40:41;2.13;;;0.65;;
50976;SDS011;36992;48.200;12.418;2022-12-29T03:43:10;2.33;;;0.47;;
50976;SDS011;36992;48.200;12.418;2022-12-29T03:45:38;4.80;;;0.77;;
50976;SDS011;36992;48.200;12.418;2022-12-29T03:48:05;1.98;;;0.60;;
50976;SDS011;36992;48.200;12.418;2022-12-29T03:50:33;1.67;;;0.55;;
50976;SDS011;36992;48.200;12.418;2022-12-29T03:52:59;2.45;;;0.60;;
50976;SDS011;36992;48.200;12.418;2022-12-29T03:55:26;1.58;;;0.50;;
50976;SDS011;36992;48.200;12.418;2022-12-29T03:57:53;2.80;;;1.20;;
50976;SDS011;36992;48.200;12.418;2022-12-29T04:00:19;2.60;;;0.60;;
50976;SDS011;36992;48.200;12.418;2022-12-29T04:02:46;2.00;;;0.47;;
50976;SDS011;36992;48.200;12.418;2022-12-29T04:05:12;2.17;;;0.75;;
50976;SDS011;36992;48.200;12.418;2022-12-29T04:07:40;2.03;;;0.55;;
50976;SDS011;36992;48.200;12.418;2022-12-29T04:10:07;1.73;;;0.60;;
50976;SDS011;36992;48.200;12.418;2022-12-29T04:12:34;1.65;;;0.47;;
50976;SDS011;36992;48.200;12.418;2022-12-29T04:15:01;2.58;;;0.68;;
50976;SDS011;36992;48.200;12.418;2022-12-29T04:17:28;2.75;;;1.35;;
50976;SDS011;36992;48.200;12.418;2022-12-29T04:19:54;2.15;;;1.10;;
50976;SDS011;36992;48.200;12.418;2022-12-29T04:22:42;1.58;;;0.50;;
50976;SDS011;36992;48.200;12.418;2022-12-29T04:25:09;1.58;;;0.60;;
50976;SDS011;36992;48.200;12.418;2022-12-29T04:27:36;1.45;;;0.50;;
50976;SDS011;36992;48.200;12.418;2022-12-29T04:30:03;2.13;;;0.80;;
50976;SDS011;36992;48.200;12.418;2022-12-29T04:32:30;1.13;;;0.32;;
50976;SDS011;36992;48.200;12.418;2022-12-29T04:34:57;2.08;;;0.63;;
50976;SDS011;36992;48.200;12.418;2022-12-29T04:37:23;1.50;;;0.47;;
50976;SDS011;36992;48.200;12.418;2022-12-29T04:39:51;1.77;;;0.60;;
50976;SDS011;36992;48.200;12.418;2022-12-29T04:42:18;3.90;;;0.50;;
50976;SDS011;36992;48.200;12.418;2022-12-29T04:44:44;2.70;;;0.35;;
50976;SDS011;36992;48.200;12.418;2022-12-29T04:47:11;1.52;;;0.73;;
50976;SDS011;36992;48.200;12.418;2022-12-29T04:49:38;1.67;;;0.50;;
50976;SDS011;36992;48.200;12.418;2022-12-29T04:52:04;2.83;;;0.50;;
50976;SDS011;36992;48.200;12.418;2022-12-29T04:54:33;1.10;;;0.40;;
50976;SDS011;36992;48.200;12.418;2022-12-29T04:57:01;2.28;;;0.60;;
50976;SDS011;36992;48.200;12.418;2022-12-29T04:59:27;0.90;;;0.43;;
50976;SDS011;36992;48.200;12.418;2022-12-29T05:01:54;1.90;;;0.43;;
50976;SDS011;36992;48.200;12.418;2022-12-29T05:04:20;1.42;;;0.60;;
50976;SDS011;36992;48.200;12.418;2022-12-29T05:06:47;2.25;;;0.80;;
50976;SDS011;36992;48.200;12.418;2022-12-29T05:09:14;2.42;;;1.08;;
50976;SDS011;36992;48.200;12.418;2022-12-29T05:11:40;1.80;;;0.57;;
50976;SDS011;36992;48.200;12.418;2022-12-29T05:14:09;1.98;;;0.70;;
50976;SDS011;36992;48.200;12.418;2022-12-29T05:16:35;1.38;;;0.43;;
50976;SDS011;36992;48.200;12.418;2022-12-29T05:19:02;3.53;;;1.00;;
50976;SDS011;36992;48.200;12.418;2022-12-29T05:21:28;1.55;;;0.70;;
50976;SDS011;36992;48.200;12.418;2022-12-29T05:23:55;1.63;;;0.60;;
50976;SDS011;36992;48.200;12.418;2022-12-29T05:26:22;1.05;;;0.38;;
50976;SDS011;36992;48.200;12.418;2022-12-29T05:28:49;2.20;;;0.68;;
50976;SDS011;36992;48.200;12.418;2022-12-29T05:31:17;1.52;;;0.60;;
50976;SDS011;36992;48.200;12.418;2022-12-29T05:33:44;1.50;;;0.60;;
50976;SDS011;36992;48.200;12.418;2022-12-29T05:36:10;1.35;;;0.52;;
50976;SDS011;36992;48.200;12.418;2022-12-29T05:38:37;2.35;;;0.50;;
50976;SDS011;36992;48.200;12.418;2022-12-29T05:41:04;0.73;;;0.30;;
50976;SDS011;36992;48.200;12.418;2022-12-29T05:43:31;1.48;;;0.40;;
50976;SDS011;36992;48.200;12.418;2022-12-29T05:45:57;2.38;;;0.73;;
50976;SDS011;36992;48.200;12.418;2022-12-29T05:48:26;2.88;;;1.00;;
50976;SDS011;36992;48.200;12.418;2022-12-29T05:50:53;2.65;;;0.90;;
50976;SDS011;36992;48.200;12.418;2022-12-29T05:53:19;1.95;;;0.60;;
50976;SDS011;36992;48.200;12.418;2022-12-29T05:55:46;1.58;;;0.40;;
50976;SDS011;36992;48.200;12.418;2022-12-29T05:58:14;1.80;;;0.60;;
50976;SDS011;36992;48.200;12.418;2022-12-29T06:00:42;1.60;;;0.40;;
50976;SDS011;36992;48.200;12.418;2022-12-29T06:03:09;1.75;;;0.50;;
50976;SDS011;36992;48.200;12.418;2022-12-29T06:05:37;1.35;;;0.43;;
50976;SDS011;36992;48.200;12.418;2022-12-29T06:08:04;1.90;;;0.70;;
50976;SDS011;36992;48.200;12.418;2022-12-29T06:10:30;1.60;;;0.50;;
50976;SDS011;36992;48.200;12.418;2022-12-29T06:12:57;1.88;;;0.47;;
50976;SDS011;36992;48.200;12.418;2022-12-29T06:15:24;2.05;;;0.40;;
50976;SDS011;36992;48.200;12.418;2022-12-29T06:17:50;3.58;;;1.25;;
50976;SDS011;36992;48.200;12.418;2022-12-29T06:20:17;1.38;;;0.57;;
50976;SDS011;36992;48.200;12.418;2022-12-29T06:22:45;2.15;;;0.50;;
50976;SDS011;36992;48.200;12.418;2022-12-29T06:25:11;1.52;;;0.60;;
50976;SDS011;36992;48.200;12.418;2022-12-29T06:27:38;1.40;;;0.60;;
50976;SDS011;36992;48.200;12.418;2022-12-29T06:30:05;4.20;;;1.85;;
50976;SDS011;36992;48.200;12.418;2022-12-29T06:32:32;1.35;;;0.50;;
50976;SDS011;36992;48.200;12.418;2022-12-29T06:34:58;1.67;;;0.40;;
50976;SDS011;36992;48.200;12.418;2022-12-29T06:37:25;1.23;;;0.40;;
50976;SDS011;36992;48.200;12.418;2022-12-29T06:39:53;1.20;;;0.43;;
50976;SDS011;36992;48.200;12.418;2022-12-29T06:42:19;1.45;;;0.43;;
50976;SDS011;36992;48.200;12.418;2022-12-29T06:44:46;0.80;;;0.30;;
50976;SDS011;36992;48.200;12.418;2022-12-29T06:47:12;2.20;;;0.50;;
50976;SDS011;36992;48.200;12.418;2022-12-29T06:49:39;1.83;;;0.60;;
50976;SDS011;36992;48.200;12.418;2022-12-29T06:52:05;3.60;;;1.40;;
50976;SDS011;36992;48.200;12.418;2022-12-29T06:54:32;5.47;;;1.77;;
50976;SDS011;36992;48.200;12.418;2022-12-29T06:57:00;6.15;;;2.20;;
50976;SDS011;36992;48.200;12.418;2022-12-29T06:59:27;5.07;;;1.83;;
50976;SDS011;36992;48.200;12.418;2022-12-29T07:01:53;4.47;;;1.33;;
50976;SDS011;36992;48.200;12.418;2022-12-29T07:04:20;2.88;;;0.90;;
50976;SDS011;36992;48.200;12.418;2022-12-29T07:06:46;2.30;;;0.90;;
50976;SDS011;36992;48.200;12.418;2022-12-29T07:09:13;1.70;;;0.43;;
50976;SDS011;36992;48.200;12.418;2022-12-29T07:11:40;1.95;;;0.63;;
50976;SDS011;36992;48.200;12.418;2022-12-29T07:14:08;3.50;;;1.10;;
50976;SDS011;36992;48.200;12.418;2022-12-29T07:16:36;3.42;;;1.70;;
50976;SDS011;36992;48.200;12.418;2022-12-29T07:19:03;2.63;;;0.70;;
50976;SDS011;36992;48.200;12.418;2022-12-29T07:21:30;4.30;;;1.15;;
50976;SDS011;36992;48.200;12.418;2022-12-29T07:23:56;2.90;;;1.00;;
50976;SDS011;36992;48.200;12.418;2022-12-29T07:26:23;4.05;;;0.70;;
50976;SDS011;36992;48.200;12.418;2022-12-29T07:28:49;2.63;;;0.80;;
50976;SDS011;36992;48.200;12.418;2022-12-29T07:31:18;2.33;;;0.70;;
50976;SDS011;36992;48.200;12.418;2022-12-29T07:33:46;2.78;;;0.80;;
50976;SDS011;36992;48.200;12.418;2022-12-29T07:36:14;3.42;;;1.15;;
50976;SDS011;36992;48.200;12.418;2022-12-29T07:38:42;2.95;;;0.73;;
50976;SDS011;36992;48.200;12.418;2022-12-29T07:41:09;2.75;;;0.85;;
50976;SDS011;36992;48.200;12.418;2022-12-29T07:43:35;4.25;;;0.82;;
50976;SDS011;36992;48.200;12.418;2022-12-29T07:46:02;2.08;;;0.45;;
50976;SDS011;36992;48.200;12.418;2022-12-29T07:48:30;3.55;;;0.85;;
50976;SDS011;36992;48.200;12.418;2022-12-29T07:50:58;4.90;;;1.15;;
50976;SDS011;36992;48.200;12.418;2022-12-29T07:53:25;3.22;;;1.13;;
50976;SDS011;36992;48.200;12.418;2022-12-29T07:55:51;3.63;;;1.02;;
50976;SDS011;36992;48.200;12.418;2022-12-29T07:58:18;4.75;;;1.27;;
50976;SDS011;36992;48.200;12.418;2022-12-29T08:00:44;3.08;;;0.95;;
50976;SDS011;36992;48.200;12.418;2022-12-29T08:03:11;1.95;;;0.73;;
50976;SDS011;36992;48.200;12.418;2022-12-29T08:05:39;1.90;;;0.77;;
50976;SDS011;36992;48.200;12.418;2022-12-29T08:08:06;2.53;;;1.00;;
50976;SDS011;36992;48.200;12.418;2022-12-29T08:10:32;2.95;;;0.90;;
50976;SDS011;36992;48.200;12.418;2022-12-29T08:12:58;2.80;;;1.02;;
50976;SDS011;36992;48.200;12.418;2022-12-29T08:15:25;3.97;;;1.23;;
50976;SDS011;36992;48.200;12.418;2022-12-29T08:17:51;9.50;;;2.97;;
50976;SDS011;36992;48.200;12.418;2022-12-29T08:20:18;8.63;;;3.47;;
50976;SDS011;36992;48.200;12.418;2022-12-29T08:22:46;5.65;;;1.65;;
50976;SDS011;36992;48.200;12.418;2022-12-29T08:25:12;7.30;;;3.03;;
50976;SDS011;36992;48.200;12.418;2022-12-29T08:27:39;5.88;;;1.75;;
50976;SDS011;36992;48.200;12.418;2022-12-29T08:30:07;3.30;;;1.10;;
50976;SDS011;36992;48.200;12.418;2022-12-29T08:32:34;3.08;;;1.10;;
50976;SDS011;36992;48.200;12.418;2022-12-29T08:35:01;2.13;;;0.88;;
50976;SDS011;36992;48.200;12.418;2022-12-29T08:37:27;3.38;;;1.10;;
50976;SDS011;36992;48.200;12.418;2022-12-29T08:39:55;2.17;;;0.70;;
50976;SDS011;36992;48.200;12.418;2022-12-29T08:42:22;2.47;;;0.73;;
50976;SDS011;36992;48.200;12.418;2022-12-29T08:44:50;1.67;;;0.60;;
50976;SDS011;36992;48.200;12.418;2022-12-29T08:47:16;2.60;;;1.00;;
50976;SDS011;36992;48.200;12.418;2022-12-29T08:49:43;1.88;;;0.60;;
50976;SDS011;36992;48.200;12.418;2022-12-29T08:52:09;1.75;;;0.52;;
50976;SDS011;36992;48.200;12.418;2022-12-29T08:54:36;2.35;;;0.65;;
50976;SDS011;36992;48.200;12.418;2022-12-29T08:57:04;1.23;;;0.47;;
50976;SDS011;36992;48.200;12.418;2022-12-29T08:59:30;2.15;;;0.60;;
50976;SDS011;36992;48.200;12.418;2022-12-29T09:01:57;3.38;;;0.82;;
50976;SDS011;36992;48.200;12.418;2022-12-29T09:04:23;3.97;;;1.25;;
50976;SDS011;36992;48.200;12.418;2022-12-29T09:06:50;3.13;;;1.00;;
50976;SDS011;36992;48.200;12.418;2022-12-29T09:09:17;3.05;;;0.80;;
50976;SDS011;36992;48.200;12.418;2022-12-29T09:11:43;3.58;;;0.82;;
50976;SDS011;36992;48.200;12.418;2022-12-29T09:14:12;2.20;;;0.73;;
50976;SDS011;36992;48.200;12.418;2022-12-29T09:16:39;2.70;;;0.85;;
50976;SDS011;36992;48.200;12.418;2022-12-29T09:19:23;1.33;;;0.50;;
50976;SDS011;36992;48.200;12.418;2022-12-29T09:21:50;2.65;;;0.90;;
50976;SDS011;36992;48.200;12.418;2022-12-29T09:24:16;2.30;;;0.60;;
50976;SDS011;36992;48.200;12.418;2022-12-29T09:26:43;3.05;;;0.98;;
50976;SDS011;36992;48.200;12.418;2022-12-29T09:29:09;3.47;;;0.73;;
50976;SDS011;36992;48.200;12.418;2022-12-29T09:31:37;2.08;;;0.70;;
50976;SDS011;36992;48.200;12.418;2022-12-29T09:34:04;2.45;;;0.52;;
50976;SDS011;36992;48.200;12.418;2022-12-29T09:36:30;2.03;;;0.57;;
50976;SDS011;36992;48.200;12.418;2022-12-29T09:38:57;1.95;;;0.50;;
50976;SDS011;36992;48.200;12.418;2022-12-29T09:41:24;3.17;;;0.60;;
50976;SDS011;36992;48.200;12.418;2022-12-29T09:44:06;3.45;;;0.50;;
50976;SDS011;36992;48.200;12.418;2022-12-29T09:46:43;1.70;;;0.60;;
50976;SDS011;36992;48.200;12.418;2022-12-29T09:49:21;1.65;;;0.80;;
50976;SDS011;36992;48.200;12.418;2022-12-29T09:51:54;1.48;;;0.45;;
50976;SDS011;36992;48.200;12.418;2022-12-29T09:54:32;1.70;;;0.50;;
50976;SDS011;36992;48.200;12.418;2022-12-29T09:57:10;4.10;;;0.63;;
50976;SDS011;36992;48.200;12.418;2022-12-29T09:59:42;2.90;;;1.15;;
50976;SDS011;36992;48.200;12.418;2022-12-29T10:02:15;2.08;;;0.68;;
50976;SDS011;36992;48.200;12.418;2022-12-29T10:04:50;1.50;;;0.60;;
50976;SDS011;36992;48.200;12.418;2022-12-29T10:07:19;1.85;;;0.45;;
50976;SDS011;36992;48.200;12.418;2022-12-29T10:09:57;1.35;;;0.35;;
50976;SDS011;36992;48.200;12.418;2022-12-29T10:12:33;1.10;;;0.30;;
50976;SDS011;36992;48.200;12.418;2022-12-29T10:15:18;2.78;;;0.70;;
50976;SDS011;36992;48.200;12.418;2022-12-29T10:18:01;1.55;;;0.40;;
50976;SDS011;36992;48.200;12.418;2022-12-29T10:20:38;2.13;;;0.47;;
50976;SDS011;36992;48.200;12.418;2022-12-29T10:23:20;1.52;;;0.50;;
50976;SDS011;36992;48.200;12.418;2022-12-29T10:25:53;3.10;;;0.73;;
50976;SDS011;36992;48.200;12.418;2022-12-29T10:28:22;3.15;;;0.70;;
50976;SDS011;36992;48.200;12.418;2022-12-29T10:30:51;4.28;;;0.82;;
50976;SDS011;36992;48.200;12.418;2022-12-29T10:33:26;3.70;;;0.80;;
50976;SDS011;36992;48.200;12.418;2022-12-29T10:36:01;2.35;;;0.60;;
50976;SDS011;36992;48.200;12.418;2022-12-29T10:38:35;1.88;;;0.60;;
50976;SDS011;36992;48.200;12.418;2022-12-29T10:41:08;1.58;;;0.50;;
50976;SDS011;36992;48.200;12.418;2022-12-29T10:43:45;1.57;;;0.50;;
50976;SDS011;36992;48.200;12.418;2022-12-29T10:46:14;1.33;;;0.52;;
50976;SDS011;36992;48.200;12.418;2022-12-29T10:48:46;2.53;;;0.52;;
50976;SDS011;36992;48.200;12.418;2022-12-29T10:51:15;1.63;;;0.45;;
50976;SDS011;36992;48.200;12.418;2022-12-29T10:53:47;2.20;;;0.43;;
50976;SDS011;36992;48.200;12.418;2022-12-29T10:56:25;1.92;;;0.88;;
50976;SDS011;36992;48.200;12.418;2022-12-29T10:58:58;2.33;;;0.40;;
50976;SDS011;36992;48.200;12.418;2022-12-29T11:01:31;1.80;;;0.70;;
50976;SDS011;36992;48.200;12.418;2022-12-29T11:04:04;2.13;;;0.65;;
50976;SDS011;36992;48.200;12.418;2022-12-29T11:06:42;3.40;;;1.20;;
50976;SDS011;36992;48.200;12.418;2022-12-29T11:09:09;2.05;;;0.47;;
50976;SDS011;36992;48.200;12.418;2022-12-29T11:11:40;3.05;;;0.50;;
50976;SDS011;36992;48.200;12.418;2022-12-29T11:14:10;1.48;;;0.57;;
50976;SDS011;36992;48.200;12.418;2022-12-29T11:16:39;1.40;;;0.43;;
50976;SDS011;36992;48.200;12.418;2022-12-29T11:19:21;1.55;;;0.50;;
50976;SDS011;36992;48.200;12.418;2022-12-29T11:21:48;1.90;;;0.75;;
50976;SDS011;36992;48.200;12.418;2022-12-29T11:24:19;2.25;;;0.70;;
50976;SDS011;36992;48.200;12.418;2022-12-29T11:26:48;1.77;;;0.38;;
50976;SDS011;36992;48.200;12.418;2022-12-29T11:29:21;1.77;;;0.75;;
50976;SDS011;36992;48.200;12.418;2022-12-29T11:31:50;2.65;;;0.70;;
50976;SDS011;36992;48.200;12.418;2022-12-29T11:34:21;1.92;;;0.40;;
50976;SDS011;36992;48.200;12.418;2022-12-29T11:36:51;1.52;;;0.50;;
50976;SDS011;36992;48.200;12.418;2022-12-29T11:39:26;1.35;;;0.43;;
50976;SDS011;36992;48.200;12.418;2022-12-29T11:41:57;0.85;;;0.30;;
50976;SDS011;36992;48.200;12.418;2022-12-29T11:44:24;2.10;;;0.57;;
50976;SDS011;36992;48.200;12.418;2022-12-29T11:46:52;2.05;;;0.50;;
50976;SDS011;36992;48.200;12.418;2022-12-29T11:49:21;1.60;;;0.60;;
50976;SDS011;36992;48.200;12.418;2022-12-29T11:51:51;1.58;;;0.73;;
50976;SDS011;36992;48.200;12.418;2022-12-29T11:54:22;2.40;;;0.60;;
50976;SDS011;36992;48.200;12.418;2022-12-29T11:56:51;2.22;;;1.00;;
50976;SDS011;36992;48.200;12.418;2022-12-29T11:59:35;3.10;;;1.27;;
50976;SDS011;36992;48.200;12.418;2022-12-29T12:02:13;2.70;;;1.00;;
50976;SDS011;36992;48.200;12.418;2022-12-29T12:05:03;2.35;;;0.95;;
50976;SDS011;36992;48.200;12.418;2022-12-29T12:07:39;2.88;;;0.90;;
50976;SDS011;36992;48.200;12.418;2022-12-29T12:10:13;3.22;;;0.80;;
50976;SDS011;36992;48.200;12.418;2022-12-29T12:12:47;2.42;;;0.73;;
50976;SDS011;36992;48.200;12.418;2022-12-29T12:15:19;2.75;;;0.73;;
50976;SDS011;36992;48.200;12.418;2022-12-29T12:17:49;4.63;;;1.05;;
50976;SDS011;36992;48.200;12.418;2022-12-29T12:20:21;2.25;;;0.73;;
50976;SDS011;36992;48.200;12.418;2022-12-29T12:22:54;2.58;;;0.60;;
50976;SDS011;36992;48.200;12.418;2022-12-29T12:25:29;2.30;;;0.60;;
50976;SDS011;36992;48.200;12.418;2022-12-29T12:28:01;1.52;;;0.60;;
50976;SDS011;36992;48.200;12.418;2022-12-29T12:30:33;1.52;;;0.50;;
50976;SDS011;36992;48.200;12.418;2022-12-29T12:33:06;1.77;;;0.55;;
50976;SDS011;36992;48.200;12.418;2022-12-29T12:35:43;1.30;;;0.40;;
50976;SDS011;36992;48.200;12.418;2022-12-29T12:38:20;3.15;;;1.00;;
50976;SDS011;36992;48.200;12.418;2022-12-29T12:40:56;2.53;;;0.63;;
50976;SDS011;36992;48.200;12.418;2022-12-29T12:43:40;1.83;;;0.52;;
50976;SDS011;36992;48.200;12.418;2022-12-29T12:46:22;1.35;;;0.43;;
50976;SDS011;36992;48.200;12.418;2022-12-29T12:52:03;1.88;;;0.57;;
50976;SDS011;36992;48.200;12.418;2022-12-29T12:54:46;2.97;;;1.05;;
50976;SDS011;36992;48.200;12.418;2022-12-29T12:57:32;4.55;;;1.23;;
50976;SDS011;36992;48.200;12.418;2022-12-29T13:00:08;4.80;;;1.20;;
50976;SDS011;36992;48.200;12.418;2022-12-29T13:02:40;2.08;;;0.60;;
50976;SDS011;36992;48.200;12.418;2022-12-29T13:11:07;1.85;;;0.50;;
50976;SDS011;36992;48.200;12.418;2022-12-29T13:13:56;2.85;;;0.60;;
50976;SDS011;36992;48.200;12.418;2022-12-29T13:16:34;3.83;;;0.88;;
50976;SDS011;36992;48.200;12.418;2022-12-29T13:19:09;1.60;;;0.70;;
50976;SDS011;36992;48.200;12.418;2022-12-29T13:21:44;1.65;;;0.55;;
50976;SDS011;36992;48.200;12.418;2022-12-29T13:24:25;1.50;;;0.50;;
50976;SDS011;36992;48.200;12.418;2022-12-29T13:26:59;4.20;;;0.80;;
50976;SDS011;36992;48.200;12.418;2022-12-29T13:29:31;1.45;;;0.50;;
50976;SDS011;36992;48.200;12.418;2022-12-29T13:32:04;1.63;;;0.50;;
50976;SDS011;36992;48.200;12.418;2022-12-29T13:34:48;1.77;;;0.40;;
50976;SDS011;36992;48.200;12.418;2022-12-29T13:37:24;2.00;;;0.47;;
50976;SDS011;36992;48.200;12.418;2022-12-29T13:39:56;1.65;;;0.43;;
50976;SDS011;36992;48.200;12.418;2022-12-29T13:42:27;1.58;;;0.50;;
50976;SDS011;36992;48.200;12.418;2022-12-29T13:44:57;2.47;;;0.65;;
50976;SDS011;36992;48.200;12.418;2022-12-29T13:47:29;2.10;;;0.63;;
50976;SDS011;36992;48.200;12.418;2022-12-29T13:50:01;2.13;;;0.55;;
50976;SDS011;36992;48.200;12.418;2022-12-29T13:52:32;3.92;;;1.42;;
50976;SDS011;36992;48.200;12.418;2022-12-29T13:55:17;4.72;;;1.20;;
50976;SDS011;36992;48.200;12.418;2022-12-29T13:57:53;2.78;;;0.70;;
50976;SDS011;36992;48.200;12.418;2022-12-29T14:00:25;0.95;;;0.30;;
50976;SDS011;36992;48.200;12.418;2022-12-29T14:03:04;1.70;;;0.40;;
50976;SDS011;36992;48.200;12.418;2022-12-29T14:05:44;1.23;;;0.30;;
50976;SDS011;36992;48.200;12.418;2022-12-29T14:08:29;1.60;;;0.50;;
50976;SDS011;36992;48.200;12.418;2022-12-29T14:11:04;1.77;;;0.30;;
50976;SDS011;36992;48.200;12.418;2022-12-29T14:13:36;1.67;;;0.30;;
50976;SDS011;36992;48.200;12.418;2022-12-29T14:16:06;1.27;;;0.40;;
50976;SDS011;36992;48.200;12.418;2022-12-29T14:18:40;2.42;;;0.80;;
50976;SDS011;36992;48.200;12.418;2022-12-29T14:21:09;4.68;;;1.63;;
50976;SDS011;36992;48.200;12.418;2022-12-29T14:23:46;5.25;;;1.60;;
50976;SDS011;36992;48.200;12.418;2022-12-29T14:26:17;12.65;;;4.22;;
50976;SDS011;36992;48.200;12.418;2022-12-29T14:29:15;14.73;;;5.28;;
50976;SDS011;36992;48.200;12.418;2022-12-29T14:32:09;10.93;;;4.05;;
50976;SDS011;36992;48.200;12.418;2022-12-29T14:38:07;5.03;;;1.92;;
50976;SDS011;36992;48.200;12.418;2022-12-29T14:40:41;4.55;;;1.30;;
50976;SDS011;36992;48.200;12.418;2022-12-29T14:43:13;5.40;;;1.80;;
50976;SDS011;36992;48.200;12.418;2022-12-29T14:45:47;11.25;;;3.67;;
50976;SDS011;36992;48.200;12.418;2022-12-29T14:50:53;7.47;;;2.90;;
50976;SDS011;36992;48.200;12.418;2022-12-29T14:56:09;4.68;;;1.77;;
50976;SDS011;36992;48.200;12.418;2022-12-29T14:58:41;4.05;;;1.35;;
50976;SDS011;36992;48.200;12.418;2022-12-29T15:01:18;3.27;;;1.10;;
50976;SDS011;36992;48.200;12.418;2022-12-29T15:03:48;5.65;;;1.67;;
50976;SDS011;36992;48.200;12.418;2022-12-29T15:06:17;3.90;;;1.08;;
50976;SDS011;36992;48.200;12.418;2022-12-29T15:08:49;2.65;;;0.90;;
50976;SDS011;36992;48.200;12.418;2022-12-29T15:11:21;3.35;;;1.20;;
50976;SDS011;36992;48.200;12.418;2022-12-29T15:13:50;3.50;;;1.38;;
50976;SDS011;36992;48.200;12.418;2022-12-29T15:16:21;4.15;;;1.73;;
50976;SDS011;36992;48.200;12.418;2022-12-29T15:18:49;8.27;;;3.97;;
50976;SDS011;36992;48.200;12.418;2022-12-29T15:21:16;10.02;;;5.32;;